sensor_id;sensor_type;location;lat;lon;timestamp;pressure;altitude;pressure_sealevel;temperature;humidity
34921;BME280;21128;50.016;20.002;2023-12-29T00:00:48;98811.38;;;5.88;95.67
34921;BME280;21128;50.016;20.002;2023-12-29T00:03:35;98816.38;;;5.87;95.86
34921;BME280;21128;50.016;20.002;2023-12-29T00:06:02;98813.77;;;5.87;96.07
34921;BME280;21128;50.016;20.002;2023-12-29T00:08:29;98805.78;;;5.87;96.88
34921;BME280;21128;50.016;20.002;2023-12-29T00:10:56;98811.19;;;5.87;97.06
34921;BME280;21128;50.016;20.002;2023-12-29T00:13:22;98811.48;;;5.85;97.92
34921;BME280;21128;50.016;20.002;2023-12-29T00:15:54;98809.64;;;5.86;99.12
34921;BME280;21128;50.016;20.002;2023-12-29T00:18:21;98817.89;;;5.88;98.73
34921;BME280;21128;50.016;20.002;2023-12-29T00:20:49;98822.65;;;5.87;98.92
34921;BME280;21128;50.016;20.002;2023-12-29T00:23:15;98820.36;;;5.85;99.28
34921;BME280;21128;50.016;20.002;2023-12-29T00:25:42;98816.66;;;5.83;99.37
34921;BME280;21128;50.016;20.002;2023-12-29T00:28:09;98816.57;;;5.82;99.51
34921;BME280;21128;50.016;20.002;2023-12-29T00:30:38;98814.45;;;5.83;99.69
34921;BME280;21128;50.016;20.002;2023-12-29T00:33:06;98817.89;;;5.83;99.72
34921;BME280;21128;50.016;20.002;2023-12-29T00:35:32;98813.63;;;5.82;100.00
34921;BME280;21128;50.016;20.002;2023-12-29T00:37:59;98808.72;;;5.80;100.00
34921;BME280;21128;50.016;20.002;2023-12-29T00:40:26;98807.22;;;5.79;100.00
34921;BME280;21128;50.016;20.002;2023-12-29T00:42:52;98802.45;;;5.78;100.00
34921;BME280;21128;50.016;20.002;2023-12-29T00:45:21;98802.04;;;5.79;100.00
34921;BME280;21128;50.016;20.002;2023-12-29T00:47:48;98800.86;;;5.78;100.00
34921;BME280;21128;50.016;20.002;2023-12-29T00:50:17;98792.17;;;5.78;100.00
34921;BME280;21128;50.016;20.002;2023-12-29T00:52:43;98789.48;;;5.80;100.00
34921;BME280;21128;50.016;20.002;2023-12-29T00:55:10;98787.81;;;5.81;100.00
34921;BME280;21128;50.016;20.002;2023-12-29T00:57:37;98785.61;;;5.83;100.00
34921;BME280;21128;50.016;20.002;2023-12-29T01:00:04;98782.98;;;5.83;100.00
34921;BME280;21128;50.016;20.002;2023-12-29T01:02:32;98782.05;;;5.81;100.00
34921;BME280;21128;50.016;20.002;2023-12-29T01:04:58;98780.52;;;5.81;100.00
34921;BME280;21128;50.016;20.002;2023-12-29T01:07:25;98783.83;;;5.81;100.00
34921;BME280;21128;50.016;20.002;2023-12-29T01:09:52;98783.70;;;5.80;100.00
34921;BME280;21128;50.016;20.002;2023-12-29T01:12:18;98778.54;;;5.79;100.00
34921;BME280;21128;50.016;20.002;2023-12-29T01:14:45;98771.00;;;5.78;100.00
34921;BME280;21128;50.016;20.002;2023-12-29T01:17:12;98765.73;;;5.78;100.00
34921;BME280;21128;50.016;20.002;2023-12-29T01:19:38;98766.22;;;5.79;100.00
34921;BME280;21128;50.016;20.002;2023-12-29T01:22:05;98771.64;;;5.78;100.00
34921;BME280;21128;50.016;20.002;2023-12-29T01:24:32;98766.20;;;5.77;100.00
34921;BME280;21128;50.016;20.002;2023-12-29T01:26:59;98769.54;;;5.74;100.00
34921;BME280;21128;50.016;20.002;2023-12-29T01:29:25;98767.46;;;5.69;100.00
34921;BME280;21128;50.016;20.002;2023-12-29T01:31:52;98765.45;;;5.64;100.00
34921;BME280;21128;50.016;20.002;2023-12-29T01:34:19;98761.58;;;5.59;100.00
34921;BME280;21128;50.016;20.002;2023-12-29T01:36:45;98755.48;;;5.57;100.00
34921;BME280;21128;50.016;20.002;2023-12-29T01:39:14;98753.83;;;5.56;100.00
34921;BME280;21128;50.016;20.002;2023-12-29T01:41:40;98751.45;;;5.56;100.00
34921;BME280;21128;50.016;20.002;2023-12-29T01:44:23;98759.33;;;5.55;100.00
34921;BME280;21128;50.016;20.002;2023-12-29T01:46:55;98759.04;;;5.54;100.00
34921;BME280;21128;50.016;20.002;2023-12-29T01:49:23;98758.85;;;5.52;100.00
34921;BME280;21128;50.016;20.002;2023-12-29T01:51:53;98753.66;;;5.52;100.00
34921;BME280;21128;50.016;20.002;2023-12-29T01:54:22;98747.56;;;5.52;100.00
34921;BME280;21128;50.016;20.002;2023-12-29T01:56:50;98739.91;;;5.50;100.00
34921;BME280;21128;50.016;20.002;2023-12-29T01:59:19;98731.59;;;5.47;100.00
34921;BME280;21128;50.016;20.002;2023-12-29T02:01:46;98727.14;;;5.46;100.00
34921;BME280;21128;50.016;20.002;2023-12-29T02:04:14;98727.64;;;5.46;100.00
34921;BME280;21128;50.016;20.002;2023-12-29T02:06:41;98728.31;;;5.47;100.00
34921;BME280;21128;50.016;20.002;2023-12-29T02:09:08;98728.77;;;5.48;100.00
34921;BME280;21128;50.016;20.002;2023-12-29T02:11:35;98732.35;;;5.48;100.00
34921;BME280;21128;50.016;20.002;2023-12-29T02:14:02;98729.95;;;5.50;100.00
34921;BME280;21128;50.016;20.002;2023-12-29T02:16:45;98726.02;;;5.52;100.00
34921;BME280;21128;50.016;20.002;2023-12-29T02:19:42;98718.77;;;5.53;100.00
34921;BME280;21128;50.016;20.002;2023-12-29T02:22:11;98707.41;;;5.54;100.00
34921;BME280;21128;50.016;20.002;2023-12-29T02:24:39;98702.02;;;5.57;100.00
34921;BME280;21128;50.016;20.002;2023-12-29T02:30:10;98696.81;;;5.59;100.00
34921;BME280;21128;50.016;20.002;2023-12-29T02:32:42;98701.52;;;5.59;100.00
34921;BME280;21128;50.016;20.002;2023-12-29T02:35:16;98698.46;;;5.56;100.00
34921;BME280;21128;50.016;20.002;2023-12-29T02:37:44;98695.08;;;5.54;100.00
34921;BME280;21128;50.016;20.002;2023-12-29T02:40:11;98694.38;;;5.52;100.00
34921;BME280;21128;50.016;20.002;2023-12-29T02:42:44;98695.54;;;5.51;100.00
34921;BME280;21128;50.016;20.002;2023-12-29T02:45:11;98689.28;;;5.48;100.00
34921;BME280;21128;50.016;20.002;2023-12-29T02:47:38;98689.16;;;5.48;100.00
34921;BME280;21128;50.016;20.002;2023-12-29T02:50:05;98690.48;;;5.44;100.00
34921;BME280;21128;50.016;20.002;2023-12-29T02:52:31;98689.39;;;5.42;100.00
34921;BME280;21128;50.016;20.002;2023-12-29T02:54:58;98687.21;;;5.41;100.00
34921;BME280;21128;50.016;20.002;2023-12-29T02:57:25;98677.70;;;5.41;100.00
34921;BME280;21128;50.016;20.002;2023-12-29T02:59:51;98678.00;;;5.41;100.00
34921;BME280;21128;50.016;20.002;2023-12-29T03:02:18;98689.44;;;5.39;100.00
34921;BME280;21128;50.016;20.002;2023-12-29T03:04:45;98688.17;;;5.37;100.00
34921;BME280;21128;50.016;20.002;2023-12-29T03:07:12;98688.36;;;5.37;100.00
34921;BME280;21128;50.016;20.002;2023-12-29T03:09:38;98680.84;;;5.38;100.00
34921;BME280;21128;50.016;20.002;2023-12-29T03:12:06;98672.55;;;5.37;100.00
34921;BME280;21128;50.016;20.002;2023-12-29T03:14:32;98668.70;;;5.37;100.00
34921;BME280;21128;50.016;20.002;2023-12-29T03:16:59;98667.83;;;5.37;100.00
34921;BME280;21128;50.016;20.002;2023-12-29T03:19:26;98666.89;;;5.39;100.00
34921;BME280;21128;50.016;20.002;2023-12-29T03:21:57;98669.23;;;5.37;100.00
34921;BME280;21128;50.016;20.002;2023-12-29T03:24:23;98663.79;;;5.35;100.00
34921;BME280;21128;50.016;20.002;2023-12-29T03:26:50;98660.98;;;5.36;100.00
34921;BME280;21128;50.016;20.002;2023-12-29T03:29:17;98657.79;;;5.34;100.00
34921;BME280;21128;50.016;20.002;2023-12-29T03:31:43;98658.55;;;5.34;100.00
34921;BME280;21128;50.016;20.002;2023-12-29T03:34:12;98651.54;;;5.32;100.00
34921;BME280;21128;50.016;20.002;2023-12-29T03:36:38;98646.68;;;5.32;100.00
34921;BME280;21128;50.016;20.002;2023-12-29T03:39:05;98648.36;;;5.33;100.00
34921;BME280;21128;50.016;20.002;2023-12-29T03:41:36;98643.36;;;5.35;100.00
34921;BME280;21128;50.016;20.002;2023-12-29T03:44:03;98644.52;;;5.35;100.00
34921;BME280;21128;50.016;20.002;2023-12-29T03:46:30;98638.89;;;5.34;100.00
34921;BME280;21128;50.016;20.002;2023-12-29T03:48:56;98635.95;;;5.31;100.00
34921;BME280;21128;50.016;20.002;2023-12-29T03:51:23;98633.13;;;5.25;100.00
34921;BME280;21128;50.016;20.002;2023-12-29T03:53:50;98632.02;;;5.22;100.00
34921;BME280;21128;50.016;20.002;2023-12-29T03:56:18;98632.77;;;5.21;100.00
34921;BME280;21128;50.016;20.002;2023-12-29T03:58:45;98629.25;;;5.22;100.00
34921;BME280;21128;50.016;20.002;2023-12-29T04:01:14;98630.85;;;5.21;100.00
34921;BME280;21128;50.016;20.002;2023-12-29T04:03:41;98628.66;;;5.18;100.00
34921;BME280;21128;50.016;20.002;2023-12-29T04:06:12;98628.66;;;5.18;100.00
34921;BME280;21128;50.016;20.002;2023-12-29T04:08:38;98628.98;;;5.30;100.00
34921;BME280;21128;50.016;20.002;2023-12-29T04:11:05;98629.08;;;5.52;100.00
34921;BME280;21128;50.016;20.002;2023-12-29T04:13:32;98627.74;;;5.78;100.00
34921;BME280;21128;50.016;20.002;2023-12-29T04:16:02;98627.19;;;5.95;100.00
34921;BME280;21128;50.016;20.002;2023-12-29T04:18:29;98622.53;;;6.08;100.00
34921;BME280;21128;50.016;20.002;2023-12-29T04:20:56;98616.50;;;6.16;100.00
34921;BME280;21128;50.016;20.002;2023-12-29T04:23:22;98615.66;;;6.34;100.00
34921;BME280;21128;50.016;20.002;2023-12-29T04:25:49;98614.02;;;6.47;100.00
34921;BME280;21128;50.016;20.002;2023-12-29T04:28:16;98618.55;;;6.52;100.00
34921;BME280;21128;50.016;20.002;2023-12-29T04:30:43;98622.71;;;6.52;100.00
34921;BME280;21128;50.016;20.002;2023-12-29T04:33:10;98617.91;;;6.49;100.00
34921;BME280;21128;50.016;20.002;2023-12-29T04:35:36;98616.13;;;6.43;100.00
34921;BME280;21128;50.016;20.002;2023-12-29T04:38:03;98615.16;;;6.33;100.00
34921;BME280;21128;50.016;20.002;2023-12-29T04:40:33;98613.61;;;6.26;100.00
34921;BME280;21128;50.016;20.002;2023-12-29T04:43:00;98612.36;;;6.22;100.00
34921;BME280;21128;50.016;20.002;2023-12-29T04:45:27;98606.20;;;6.32;100.00
34921;BME280;21128;50.016;20.002;2023-12-29T04:47:53;98603.40;;;6.50;100.00
34921;BME280;21128;50.016;20.002;2023-12-29T04:50:20;98598.45;;;6.68;100.00
34921;BME280;21128;50.016;20.002;2023-12-29T04:52:46;98597.72;;;6.88;100.00
34921;BME280;21128;50.016;20.002;2023-12-29T04:55:13;98593.19;;;7.03;99.50
34921;BME280;21128;50.016;20.002;2023-12-29T04:57:40;98595.25;;;7.18;98.66
34921;BME280;21128;50.016;20.002;2023-12-29T05:00:07;98595.74;;;7.33;97.18
34921;BME280;21128;50.016;20.002;2023-12-29T05:02:34;98595.05;;;7.45;96.27
34921;BME280;21128;50.016;20.002;2023-12-29T05:05:01;98592.04;;;7.56;95.31
34921;BME280;21128;50.016;20.002;2023-12-29T05:07:27;98595.23;;;7.66;94.17
34921;BME280;21128;50.016;20.002;2023-12-29T05:09:54;98592.11;;;7.74;93.42
34921;BME280;21128;50.016;20.002;2023-12-29T05:12:21;98596.36;;;7.79;93.50
34921;BME280;21128;50.016;20.002;2023-12-29T05:14:47;98594.93;;;7.72;93.09
34921;BME280;21128;50.016;20.002;2023-12-29T05:17:14;98599.70;;;7.46;92.67
34921;BME280;21128;50.016;20.002;2023-12-29T05:19:41;98604.39;;;7.17;93.04
34921;BME280;21128;50.016;20.002;2023-12-29T05:22:07;98597.81;;;6.89;93.23
34921;BME280;21128;50.016;20.002;2023-12-29T05:24:34;98598.27;;;6.62;94.14
34921;BME280;21128;50.016;20.002;2023-12-29T05:27:01;98602.34;;;6.35;94.51
34921;BME280;21128;50.016;20.002;2023-12-29T05:29:28;98610.08;;;6.09;95.32
34921;BME280;21128;50.016;20.002;2023-12-29T05:31:54;98614.52;;;5.90;96.19
34921;BME280;21128;50.016;20.002;2023-12-29T05:34:21;98613.69;;;5.78;96.86
34921;BME280;21128;50.016;20.002;2023-12-29T05:36:48;98612.80;;;5.67;97.63
34921;BME280;21128;50.016;20.002;2023-12-29T05:39:15;98609.61;;;5.58;98.21
34921;BME280;21128;50.016;20.002;2023-12-29T05:41:42;98611.52;;;5.52;98.74
34921;BME280;21128;50.016;20.002;2023-12-29T05:44:08;98604.44;;;5.47;99.28
34921;BME280;21128;50.016;20.002;2023-12-29T05:46:35;98598.85;;;5.45;99.79
34921;BME280;21128;50.016;20.002;2023-12-29T05:49:02;98602.73;;;5.39;99.95
34921;BME280;21128;50.016;20.002;2023-12-29T05:51:28;98603.84;;;5.34;100.00
34921;BME280;21128;50.016;20.002;2023-12-29T05:53:55;98612.79;;;5.30;100.00
34921;BME280;21128;50.016;20.002;2023-12-29T05:56:22;98621.85;;;5.30;100.00
34921;BME280;21128;50.016;20.002;2023-12-29T05:58:48;98620.09;;;5.32;100.00
34921;BME280;21128;50.016;20.002;2023-12-29T06:01:15;98615.14;;;5.48;100.00
34921;BME280;21128;50.016;20.002;2023-12-29T06:03:42;98607.52;;;5.72;100.00
34921;BME280;21128;50.016;20.002;2023-12-29T06:06:09;98606.75;;;5.96;100.00
34921;BME280;21128;50.016;20.002;2023-12-29T06:08:35;98603.34;;;6.20;100.00
34921;BME280;21128;50.016;20.002;2023-12-29T06:11:02;98612.56;;;6.39;100.00
34921;BME280;21128;50.016;20.002;2023-12-29T06:13:29;98616.33;;;6.56;100.00
34921;BME280;21128;50.016;20.002;2023-12-29T06:15:56;98615.23;;;6.63;99.99
34921;BME280;21128;50.016;20.002;2023-12-29T06:18:23;98613.05;;;6.66;99.99
34921;BME280;21128;50.016;20.002;2023-12-29T06:20:49;98608.55;;;6.66;99.93
34921;BME280;21128;50.016;20.002;2023-12-29T06:23:16;98611.94;;;6.63;99.63
34921;BME280;21128;50.016;20.002;2023-12-29T06:25:43;98610.11;;;6.55;99.55
34921;BME280;21128;50.016;20.002;2023-12-29T06:28:10;98605.59;;;6.53;99.58
34921;BME280;21128;50.016;20.002;2023-12-29T06:30:37;98601.50;;;6.52;99.39
34921;BME280;21128;50.016;20.002;2023-12-29T06:33:04;98597.83;;;6.59;99.17
34921;BME280;21128;50.016;20.002;2023-12-29T06:35:30;98598.08;;;6.75;99.18
34921;BME280;21128;50.016;20.002;2023-12-29T06:37:57;98598.33;;;6.99;98.58
34921;BME280;21128;50.016;20.002;2023-12-29T06:40:24;98594.77;;;7.28;97.57
34921;BME280;21128;50.016;20.002;2023-12-29T06:42:52;98597.40;;;7.51;96.43
34921;BME280;21128;50.016;20.002;2023-12-29T06:45:18;98600.59;;;7.69;95.91
34921;BME280;21128;50.016;20.002;2023-12-29T06:47:45;98605.15;;;7.78;95.08
34921;BME280;21128;50.016;20.002;2023-12-29T06:50:12;98609.09;;;7.84;94.70
34921;BME280;21128;50.016;20.002;2023-12-29T06:52:39;98607.42;;;7.86;94.63
34921;BME280;21128;50.016;20.002;2023-12-29T06:55:07;98607.65;;;7.94;94.01
34921;BME280;21128;50.016;20.002;2023-12-29T06:57:34;98607.80;;;8.09;93.42
34921;BME280;21128;50.016;20.002;2023-12-29T07:00:01;98612.54;;;8.20;93.21
34921;BME280;21128;50.016;20.002;2023-12-29T07:02:28;98615.41;;;8.28;93.17
34921;BME280;21128;50.016;20.002;2023-12-29T07:04:55;98623.95;;;8.34;92.69
34921;BME280;21128;50.016;20.002;2023-12-29T07:07:22;98623.23;;;8.40;92.47
34921;BME280;21128;50.016;20.002;2023-12-29T07:09:49;98619.27;;;8.38;92.26
34921;BME280;21128;50.016;20.002;2023-12-29T07:12:16;98618.07;;;8.25;91.92
34921;BME280;21128;50.016;20.002;2023-12-29T07:14:43;98619.04;;;8.11;91.74
34921;BME280;21128;50.016;20.002;2023-12-29T07:17:09;98624.02;;;8.02;91.44
34921;BME280;21128;50.016;20.002;2023-12-29T07:19:36;98623.95;;;7.99;91.47
34921;BME280;21128;50.016;20.002;2023-12-29T07:22:06;98623.73;;;7.96;91.57
34921;BME280;21128;50.016;20.002;2023-12-29T07:24:35;98608.42;;;7.91;91.48
34921;BME280;21128;50.016;20.002;2023-12-29T07:27:03;98607.73;;;7.89;91.40
34921;BME280;21128;50.016;20.002;2023-12-29T07:29:30;98605.16;;;7.95;91.44
34921;BME280;21128;50.016;20.002;2023-12-29T07:31:57;98610.27;;;8.10;91.78
34921;BME280;21128;50.016;20.002;2023-12-29T07:34:24;98617.39;;;8.29;91.68
34921;BME280;21128;50.016;20.002;2023-12-29T07:36:51;98623.52;;;8.41;91.42
34921;BME280;21128;50.016;20.002;2023-12-29T07:39:18;98623.86;;;8.49;90.72
34921;BME280;21128;50.016;20.002;2023-12-29T07:41:45;98623.56;;;8.56;90.80
34921;BME280;21128;50.016;20.002;2023-12-29T07:44:12;98621.55;;;8.62;90.52
34921;BME280;21128;50.016;20.002;2023-12-29T07:46:40;98623.26;;;8.69;90.70
34921;BME280;21128;50.016;20.002;2023-12-29T07:49:07;98611.56;;;8.82;91.08
34921;BME280;21128;50.016;20.002;2023-12-29T07:51:33;98603.56;;;8.98;90.84
34921;BME280;21128;50.016;20.002;2023-12-29T07:54:00;98601.25;;;9.05;90.56
34921;BME280;21128;50.016;20.002;2023-12-29T07:56:27;98604.77;;;9.06;90.55
34921;BME280;21128;50.016;20.002;2023-12-29T07:58:54;98603.49;;;9.09;90.68
34921;BME280;21128;50.016;20.002;2023-12-29T08:01:21;98603.77;;;9.14;91.07
34921;BME280;21128;50.016;20.002;2023-12-29T08:03:47;98604.85;;;9.27;91.08
34921;BME280;21128;50.016;20.002;2023-12-29T08:06:14;98614.34;;;9.89;91.28
34921;BME280;21128;50.016;20.002;2023-12-29T08:08:41;98615.43;;;10.64;88.98
34921;BME280;21128;50.016;20.002;2023-12-29T08:11:15;98616.86;;;11.32;87.43
34921;BME280;21128;50.016;20.002;2023-12-29T08:13:44;98616.61;;;11.73;86.03
34921;BME280;21128;50.016;20.002;2023-12-29T08:16:11;98617.21;;;12.13;84.61
34921;BME280;21128;50.016;20.002;2023-12-29T08:18:38;98611.45;;;12.45;84.39
34921;BME280;21128;50.016;20.002;2023-12-29T08:21:05;98613.70;;;12.73;81.52
34921;BME280;21128;50.016;20.002;2023-12-29T08:23:32;98617.88;;;12.93;81.90
34921;BME280;21128;50.016;20.002;2023-12-29T08:25:58;98614.10;;;13.32;79.53
34921;BME280;21128;50.016;20.002;2023-12-29T08:28:25;98619.28;;;13.75;78.25
34921;BME280;21128;50.016;20.002;2023-12-29T08:30:52;98616.16;;;14.11;73.73
34921;BME280;21128;50.016;20.002;2023-12-29T08:33:19;98615.52;;;14.06;74.09
34921;BME280;21128;50.016;20.002;2023-12-29T08:35:46;98617.09;;;14.33;73.49
34921;BME280;21128;50.016;20.002;2023-12-29T08:38:13;98620.38;;;14.36;72.70
34921;BME280;21128;50.016;20.002;2023-12-29T08:40:40;98618.40;;;14.45;70.24
34921;BME280;21128;50.016;20.002;2023-12-29T08:43:09;98623.09;;;14.75;67.77
34921;BME280;21128;50.016;20.002;2023-12-29T08:45:35;98623.13;;;14.81;67.51
34921;BME280;21128;50.016;20.002;2023-12-29T08:48:03;98633.49;;;14.66;64.49
34921;BME280;21128;50.016;20.002;2023-12-29T08:50:30;98626.44;;;14.84;66.01
34921;BME280;21128;50.016;20.002;2023-12-29T08:52:56;98624.96;;;14.90;61.57
34921;BME280;21128;50.016;20.002;2023-12-29T08:55:23;98627.35;;;14.43;61.72
34921;BME280;21128;50.016;20.002;2023-12-29T08:57:50;98631.03;;;13.77;61.91
34921;BME280;21128;50.016;20.002;2023-12-29T09:00:16;98633.07;;;13.77;64.50
34921;BME280;21128;50.016;20.002;2023-12-29T09:02:43;98638.62;;;13.99;62.17
34921;BME280;21128;50.016;20.002;2023-12-29T09:05:11;98639.64;;;13.82;63.49
34921;BME280;21128;50.016;20.002;2023-12-29T09:07:38;98636.33;;;14.04;61.79
34921;BME280;21128;50.016;20.002;2023-12-29T09:10:06;98631.61;;;14.10;61.92
34921;BME280;21128;50.016;20.002;2023-12-29T09:12:34;98632.81;;;14.39;61.33
34921;BME280;21128;50.016;20.002;2023-12-29T09:15:02;98634.48;;;14.13;59.90
34921;BME280;21128;50.016;20.002;2023-12-29T09:17:29;98639.00;;;13.63;60.15
34921;BME280;21128;50.016;20.002;2023-12-29T09:19:56;98632.21;;;13.15;60.94
34921;BME280;21128;50.016;20.002;2023-12-29T09:22:23;98637.86;;;12.80;61.67
34921;BME280;21128;50.016;20.002;2023-12-29T09:24:49;98633.23;;;12.42;62.15
34921;BME280;21128;50.016;20.002;2023-12-29T09:27:16;98628.70;;;12.09;62.96
34921;BME280;21128;50.016;20.002;2023-12-29T09:29:43;98621.36;;;11.90;64.01
34921;BME280;21128;50.016;20.002;2023-12-29T09:32:10;98620.06;;;11.80;65.01
34921;BME280;21128;50.016;20.002;2023-12-29T09:34:37;98625.04;;;11.69;65.47
34921;BME280;21128;50.016;20.002;2023-12-29T09:37:04;98619.36;;;11.57;66.03
34921;BME280;21128;50.016;20.002;2023-12-29T09:39:31;98611.50;;;11.52;66.40
34921;BME280;21128;50.016;20.002;2023-12-29T09:41:59;98610.79;;;11.53;66.96
34921;BME280;21128;50.016;20.002;2023-12-29T09:44:31;98607.85;;;11.51;66.65
34921;BME280;21128;50.016;20.002;2023-12-29T09:47:01;98602.16;;;11.52;66.98
34921;BME280;21128;50.016;20.002;2023-12-29T09:49:37;98597.50;;;11.83;67.31
34921;BME280;21128;50.016;20.002;2023-12-29T09:52:11;98589.95;;;12.02;66.06
34921;BME280;21128;50.016;20.002;2023-12-29T09:54:50;98588.27;;;12.25;66.82
34921;BME280;21128;50.016;20.002;2023-12-29T09:57:27;98591.52;;;12.31;65.09
34921;BME280;21128;50.016;20.002;2023-12-29T09:59:55;98592.64;;;12.24;65.18
34921;BME280;21128;50.016;20.002;2023-12-29T10:02:23;98588.53;;;12.28;65.56
34921;BME280;21128;50.016;20.002;2023-12-29T10:04:50;98585.02;;;12.24;64.33
34921;BME280;21128;50.016;20.002;2023-12-29T10:07:23;98576.35;;;12.06;64.30
34921;BME280;21128;50.016;20.002;2023-12-29T10:09:54;98575.55;;;11.93;64.26
34921;BME280;21128;50.016;20.002;2023-12-29T10:12:23;98581.86;;;11.85;64.25
34921;BME280;21128;50.016;20.002;2023-12-29T10:17:51;98572.66;;;11.80;65.35
34921;BME280;21128;50.016;20.002;2023-12-29T10:25:30;98560.64;;;11.95;65.14
34921;BME280;21128;50.016;20.002;2023-12-29T10:27:57;98556.65;;;11.98;64.23
34921;BME280;21128;50.016;20.002;2023-12-29T10:30:24;98555.48;;;11.99;64.22
34921;BME280;21128;50.016;20.002;2023-12-29T10:32:52;98557.17;;;11.99;63.84
34921;BME280;21128;50.016;20.002;2023-12-29T10:35:18;98551.42;;;11.99;63.81
34921;BME280;21128;50.016;20.002;2023-12-29T10:37:45;98555.27;;;12.01;62.91
34921;BME280;21128;50.016;20.002;2023-12-29T10:40:19;98550.65;;;12.02;63.18
34921;BME280;21128;50.016;20.002;2023-12-29T10:42:54;98544.35;;;12.03;63.80
34921;BME280;21128;50.016;20.002;2023-12-29T10:45:21;98544.08;;;12.06;63.55
34921;BME280;21128;50.016;20.002;2023-12-29T10:47:51;98543.14;;;12.01;62.91
34921;BME280;21128;50.016;20.002;2023-12-29T10:50:17;98545.60;;;11.98;62.66
34921;BME280;21128;50.016;20.002;2023-12-29T10:52:44;98540.48;;;11.98;63.02
34921;BME280;21128;50.016;20.002;2023-12-29T10:55:13;98531.37;;;11.98;62.58
34921;BME280;21128;50.016;20.002;2023-12-29T10:57:40;98529.89;;;11.97;62.63
34921;BME280;21128;50.016;20.002;2023-12-29T11:00:07;98530.09;;;11.99;62.67
34921;BME280;21128;50.016;20.002;2023-12-29T11:02:35;98530.11;;;11.95;62.33
34921;BME280;21128;50.016;20.002;2023-12-29T11:05:06;98525.09;;;11.93;61.91
34921;BME280;21128;50.016;20.002;2023-12-29T11:07:36;98530.49;;;11.93;62.19
34921;BME280;21128;50.016;20.002;2023-12-29T11:10:05;98532.34;;;11.94;62.48
34921;BME280;21128;50.016;20.002;2023-12-29T11:12:33;98523.11;;;11.90;61.84
34921;BME280;21128;50.016;20.002;2023-12-29T11:15:02;98521.84;;;11.85;61.92
34921;BME280;21128;50.016;20.002;2023-12-29T11:17:30;98523.23;;;11.81;62.20
34921;BME280;21128;50.016;20.002;2023-12-29T11:20:01;98523.73;;;11.80;62.68
34921;BME280;21128;50.016;20.002;2023-12-29T11:22:30;98527.45;;;11.80;63.01
34921;BME280;21128;50.016;20.002;2023-12-29T11:24:57;98526.20;;;11.78;62.57
34921;BME280;21128;50.016;20.002;2023-12-29T11:27:29;98529.61;;;11.77;62.77
34921;BME280;21128;50.016;20.002;2023-12-29T11:30:01;98528.89;;;11.76;62.57
34921;BME280;21128;50.016;20.002;2023-12-29T11:32:39;98524.30;;;11.76;63.46
34921;BME280;21128;50.016;20.002;2023-12-29T11:35:16;98524.90;;;11.77;63.07
34921;BME280;21128;50.016;20.002;2023-12-29T11:38:13;98517.48;;;11.74;63.39
34921;BME280;21128;50.016;20.002;2023-12-29T11:40:56;98523.63;;;11.74;63.83
34921;BME280;21128;50.016;20.002;2023-12-29T11:43:26;98516.68;;;11.72;64.15
34921;BME280;21128;50.016;20.002;2023-12-29T11:45:53;98522.17;;;11.71;64.16
34921;BME280;21128;50.016;20.002;2023-12-29T11:48:55;98519.21;;;11.71;64.63
34921;BME280;21128;50.016;20.002;2023-12-29T11:51:41;98524.58;;;11.70;64.32
34921;BME280;21128;50.016;20.002;2023-12-29T11:54:25;98515.61;;;11.69;64.23
34921;BME280;21128;50.016;20.002;2023-12-29T11:56:53;98506.14;;;11.69;64.61
34921;BME280;21128;50.016;20.002;2023-12-29T11:59:24;98508.29;;;11.70;64.28
34921;BME280;21128;50.016;20.002;2023-12-29T12:01:58;98508.49;;;11.71;64.55
34921;BME280;21128;50.016;20.002;2023-12-29T12:04:40;98507.70;;;11.74;64.75
34921;BME280;21128;50.016;20.002;2023-12-29T12:07:09;98512.77;;;11.77;64.54
34921;BME280;21128;50.016;20.002;2023-12-29T12:09:39;98516.02;;;11.78;64.23
34921;BME280;21128;50.016;20.002;2023-12-29T12:12:06;98518.03;;;11.81;64.58
34921;BME280;21128;50.016;20.002;2023-12-29T12:14:47;98521.66;;;11.82;63.70
34921;BME280;21128;50.016;20.002;2023-12-29T12:20:07;98520.55;;;11.84;63.67
34921;BME280;21128;50.016;20.002;2023-12-29T12:22:37;98521.23;;;11.81;63.57
34921;BME280;21128;50.016;20.002;2023-12-29T12:25:04;98513.56;;;11.80;63.94
34921;BME280;21128;50.016;20.002;2023-12-29T12:27:32;98514.26;;;11.78;63.55
34921;BME280;21128;50.016;20.002;2023-12-29T12:29:59;98508.73;;;11.76;63.55
34921;BME280;21128;50.016;20.002;2023-12-29T12:32:28;98509.94;;;11.73;63.62
34921;BME280;21128;50.016;20.002;2023-12-29T12:34:56;98505.23;;;11.71;64.00
34921;BME280;21128;50.016;20.002;2023-12-29T12:37:25;98505.86;;;11.68;64.29
34921;BME280;21128;50.016;20.002;2023-12-29T12:39:53;98508.28;;;11.66;64.20
34921;BME280;21128;50.016;20.002;2023-12-29T12:42:22;98511.25;;;11.65;64.37
34921;BME280;21128;50.016;20.002;2023-12-29T12:45:12;98508.71;;;11.64;64.74
34921;BME280;21128;50.016;20.002;2023-12-29T12:47:45;98511.58;;;11.64;64.85
34921;BME280;21128;50.016;20.002;2023-12-29T12:50:15;98511.67;;;11.64;65.47
34921;BME280;21128;50.016;20.002;2023-12-29T12:52:43;98516.41;;;11.66;65.49
34921;BME280;21128;50.016;20.002;2023-12-29T12:55:10;98514.23;;;11.65;65.76
34921;BME280;21128;50.016;20.002;2023-12-29T12:57:38;98515.75;;;11.64;65.67
34921;BME280;21128;50.016;20.002;2023-12-29T13:00:06;98512.33;;;11.63;65.78
34921;BME280;21128;50.016;20.002;2023-12-29T13:02:35;98513.98;;;11.61;65.75
34921;BME280;21128;50.016;20.002;2023-12-29T13:05:03;98519.83;;;11.60;65.95
34921;BME280;21128;50.016;20.002;2023-12-29T13:07:35;98510.81;;;11.59;66.20
34921;BME280;21128;50.016;20.002;2023-12-29T13:10:03;98512.20;;;11.59;66.52
34921;BME280;21128;50.016;20.002;2023-12-29T13:12:30;98512.15;;;11.60;66.65